createdAt,value
2023-05-13T00:00:06.925Z,98573.59
2023-05-13T00:05:10.334Z,98560.69
2023-05-13T00:10:12.241Z,98562.97
2023-05-13T00:15:14.454Z,98559.00
2023-05-13T00:20:16.545Z,98554.19
2023-05-13T00:25:18.585Z,98556.00
2023-05-13T00:30:21.363Z,98554.72
2023-05-13T00:35:23.412Z,98551.88
2023-05-13T00:40:25.897Z,98552.56
2023-05-13T00:45:28.822Z,98550.50
2023-05-13T00:50:30.790Z,98549.38
2023-05-13T00:55:32.739Z,98546.16
2023-05-13T01:00:39.714Z,98549.47
2023-05-13T01:05:47.978Z,98557.88
2023-05-13T01:10:55.516Z,98554.38
2023-05-13T01:16:07.054Z,98560.97
2023-05-13T01:21:10.288Z,98564.22
2023-05-13T01:26:12.102Z,98570.84
2023-05-13T01:31:15.909Z,98569.38
2023-05-13T01:36:18.352Z,98577.69
2023-05-13T01:41:20.264Z,98586.50
2023-05-13T01:46:22.818Z,98593.03
2023-05-13T01:51:24.946Z,98593.91
2023-05-13T01:56:26.825Z,98602.09
2023-05-13T02:01:28.839Z,98600.13
2023-05-13T02:06:30.737Z,98599.44
2023-05-13T02:11:32.751Z,98596.91
2023-05-13T02:16:34.752Z,98598.78
2023-05-13T02:21:41.294Z,98603.44
2023-05-13T02:26:45.149Z,98608.28
2023-05-13T02:31:47.070Z,98600.78
2023-05-13T02:36:48.992Z,98603.97
2023-05-13T02:41:51.019Z,98594.50
2023-05-13T02:46:53.577Z,98597.22
2023-05-13T02:51:55.518Z,98598.19
2023-05-13T02:57:04.837Z,98597.81
2023-05-13T03:02:07.033Z,98591.88
2023-05-13T03:07:09.006Z,98593.38
2023-05-13T03:12:11.091Z,98591.38
2023-05-13T03:17:13.099Z,98602.66
2023-05-13T03:22:15.040Z,98603.81
2023-05-13T03:27:17.965Z,98602.66
2023-05-13T03:32:20.058Z,98603.19
2023-05-13T03:37:22.270Z,98603.06
2023-05-13T03:42:26.334Z,98601.38
2023-05-13T03:47:30.487Z,98601.66
2023-05-13T03:52:36.515Z,98608.00
2023-05-13T03:57:38.386Z,98613.97
2023-05-13T04:02:41.111Z,98609.13
2023-05-13T04:07:43.622Z,98615.59
2023-05-13T04:12:45.502Z,98616.63
2023-05-13T04:17:47.516Z,98620.38
2023-05-13T04:22:49.415Z,98623.25
2023-05-13T04:27:51.289Z,98626.81
2023-05-13T04:33:00.631Z,98629.44
2023-05-13T04:38:02.678Z,98622.31
2023-05-13T04:43:05.092Z,98627.97
2023-05-13T04:48:12.352Z,98630.13
2023-05-13T04:53:15.114Z,98621.94
2023-05-13T04:58:17.121Z,98636.78
2023-05-13T05:03:19.123Z,98641.69
2023-05-13T05:08:21.268Z,98645.69
2023-05-13T05:13:25.099Z,98655.16
2023-05-13T05:18:27.218Z,98653.81
2023-05-13T05:23:29.623Z,98654.19
2023-05-13T05:28:31.674Z,98644.75
2023-05-13T05:33:33.795Z,98651.56
2023-05-13T05:38:36.076Z,98659.59
2023-05-13T05:43:38.520Z,98662.13
2023-05-13T05:48:40.535Z,98665.78
2023-05-13T05:53:43.236Z,98665.66
2023-05-13T05:58:47.841Z,98663.56
2023-05-13T06:03:54.569Z,98654.53
2023-05-13T06:08:57.276Z,98658.13
2023-05-13T06:13:59.498Z,98654.41
2023-05-13T06:19:03.160Z,98660.50
2023-05-13T06:24:05.414Z,98658.31
2023-05-13T06:29:07.342Z,98659.22
2023-05-13T06:34:09.209Z,98661.75
2023-05-13T06:39:12.498Z,98657.19
2023-05-13T06:44:15.155Z,98662.03
2023-05-13T06:49:21.409Z,98662.16
2023-05-13T06:54:23.369Z,98659.88
2023-05-13T06:59:25.484Z,98659.97
2023-05-13T07:04:29.424Z,98651.38
2023-05-13T07:09:31.286Z,98653.78
2023-05-13T07:14:33.452Z,98650.63
2023-05-13T07:19:35.343Z,98649.03
2023-05-13T07:24:37.240Z,98641.94
2023-05-13T07:29:39.055Z,98642.66
2023-05-13T07:34:40.953Z,98640.97
2023-05-13T07:39:43.375Z,98641.75
2023-05-13T07:44:45.696Z,98636.94
2023-05-13T07:49:47.729Z,98643.84
2023-05-13T07:54:49.663Z,98646.53
2023-05-13T07:59:52.818Z,98641.38
2023-05-13T08:04:54.632Z,98638.47
2023-05-13T08:09:56.824Z,98635.94
2023-05-13T08:14:58.723Z,98629.97
2023-05-13T08:20:01.527Z,98623.63
2023-05-13T08:25:05.624Z,98628.91
2023-05-13T08:30:08.059Z,98633.09
2023-05-13T08:35:10.136Z,98639.06
2023-05-13T08:40:12.191Z,98630.94
2023-05-13T08:45:15.520Z,98622.44
2023-05-13T08:50:17.906Z,98627.44
2023-05-13T08:55:20.300Z,98627.72
2023-05-13T09:00:23.358Z,98633.78
2023-05-13T09:05:25.709Z,98629.06
2023-05-13T09:10:28.197Z,98624.69
2023-05-13T09:15:30.650Z,98625.81
2023-05-13T09:20:33.251Z,98633.06
2023-05-13T09:25:36.589Z,98640.31
2023-05-13T09:30:45.592Z,98638.81
2023-05-13T09:35:53.742Z,98636.66
2023-05-13T09:40:58.001Z,98646.28
2023-05-13T09:46:05.165Z,98633.09
2023-05-13T09:51:07.073Z,98639.22
2023-05-13T09:56:10.772Z,98634.50
2023-05-13T10:01:12.901Z,98634.78
2023-05-13T10:06:18.973Z,98630.50
2023-05-13T10:11:21.588Z,98627.50
2023-05-13T10:16:24.744Z,98625.50
2023-05-13T10:21:31.258Z,98628.69
2023-05-13T10:26:34.546Z,98626.94
2023-05-13T10:31:37.882Z,98628.66
2023-05-13T10:36:55.107Z,98628.38
2023-05-13T10:42:31.062Z,98628.72
2023-05-13T10:47:33.774Z,98628.59
2023-05-13T10:52:46.442Z,98632.09
2023-05-13T10:58:14.685Z,98630.19
2023-05-13T11:03:36.806Z,98641.41
2023-05-13T11:08:47.223Z,98650.88
2023-05-13T11:14:02.793Z,98654.34
2023-05-13T11:19:09.468Z,98650.06
2023-05-13T11:24:18.038Z,98663.56
2023-05-13T11:29:31.234Z,98657.25
2023-05-13T11:34:34.394Z,98651.78
2023-05-13T11:39:39.476Z,98659.16
2023-05-13T11:44:47.078Z,98649.78
2023-05-13T11:49:49.108Z,98660.03
2023-05-13T11:54:54.808Z,98680.09
2023-05-13T11:59:58.906Z,98667.34
2023-05-13T12:05:11.600Z,98676.94
2023-05-13T12:10:13.656Z,98686.53
2023-05-13T12:15:20.131Z,98695.69
2023-05-13T12:20:23.501Z,98710.44
2023-05-13T12:25:45.429Z,98705.09
2023-05-13T12:30:58.726Z,98713.84
2023-05-13T12:36:26.254Z,98715.84
2023-05-13T12:41:35.044Z,98721.78
2023-05-13T12:46:37.859Z,98721.06
2023-05-13T12:51:40.169Z,98726.56
2023-05-13T12:56:42.065Z,98727.34
2023-05-13T13:01:43.984Z,98718.66
2023-05-13T13:06:45.953Z,98724.09
2023-05-13T13:11:47.924Z,98717.00
2023-05-13T13:16:49.865Z,98716.19
2023-05-13T13:21:51.715Z,98718.88
2023-05-13T13:26:54.720Z,98712.22
2023-05-13T13:31:57.148Z,98716.13
2023-05-13T13:36:59.142Z,98721.63
2023-05-13T13:42:01.033Z,98709.03
2023-05-13T13:47:02.899Z,98715.72
2023-05-13T13:52:05.041Z,98712.22
2023-05-13T13:57:07.061Z,98726.84
2023-05-13T14:02:09.604Z,98714.69
2023-05-13T14:07:11.553Z,98705.28
2023-05-13T14:12:13.370Z,98712.41
2023-05-13T14:17:15.360Z,98700.28
2023-05-13T14:22:17.886Z,98700.25
2023-05-13T14:27:20.864Z,98694.38
2023-05-13T14:32:22.688Z,98690.44
2023-05-13T14:37:24.583Z,98691.97
2023-05-13T14:42:26.470Z,98694.72
2023-05-13T14:47:28.278Z,98699.84
2023-05-13T14:52:30.283Z,98690.00
2023-05-13T14:57:32.190Z,98691.16
2023-05-13T15:02:34.208Z,98686.84
2023-05-13T15:07:36.265Z,98691.13
2023-05-13T15:12:38.086Z,98688.34
2023-05-13T15:17:39.992Z,98684.38
2023-05-13T15:22:41.934Z,98684.78
2023-05-13T15:27:44.794Z,98687.13
2023-05-13T15:32:46.823Z,98689.59
2023-05-13T15:37:48.677Z,98687.22
2023-05-13T15:42:50.953Z,98698.31
2023-05-13T15:47:53.182Z,98689.69
2023-05-13T15:52:55.472Z,98688.19
2023-05-13T15:57:57.292Z,98680.75
2023-05-13T16:02:59.225Z,98677.22
2023-05-13T16:08:01.139Z,98680.34
2023-05-13T16:13:03.037Z,98679.97
2023-05-13T16:18:05.003Z,98678.00
2023-05-13T16:23:06.944Z,98669.84
2023-05-13T16:28:10.352Z,98674.16
2023-05-13T16:33:12.381Z,98668.69
2023-05-13T16:38:14.470Z,98669.06
2023-05-13T16:43:16.302Z,98669.03
2023-05-13T16:48:18.287Z,98652.97
2023-05-13T16:53:22.368Z,98662.00
2023-05-13T16:58:24.318Z,98652.97
2023-05-13T17:03:26.272Z,98649.06
2023-05-13T17:08:28.222Z,98643.97
2023-05-13T17:13:30.056Z,98642.78
2023-05-13T17:18:31.939Z,98644.38
2023-05-13T17:23:33.855Z,98646.72
2023-05-13T17:28:36.011Z,98645.53
2023-05-13T17:33:37.878Z,98645.91
2023-05-13T17:38:39.745Z,98643.56
2023-05-13T17:43:41.959Z,98652.97
2023-05-13T17:48:43.959Z,98647.50
2023-05-13T17:53:45.921Z,98648.28
2023-05-13T17:58:47.811Z,98648.28
2023-05-13T18:03:49.678Z,98650.63
2023-05-13T18:08:51.530Z,98654.94
2023-05-13T18:13:53.471Z,98655.69
2023-05-13T18:18:56.638Z,98650.22
2023-05-13T18:23:58.681Z,98653.34
2023-05-13T18:29:01.031Z,98654.91
2023-05-13T18:34:04.060Z,98650.59
2023-05-13T18:39:06.633Z,98656.06
2023-05-13T18:44:08.710Z,98657.59
2023-05-13T18:49:11.516Z,98663.84
2023-05-13T18:54:14.199Z,98670.06
2023-05-13T18:59:17.627Z,98671.56
2023-05-13T19:04:20.076Z,98666.03
2023-05-13T19:09:22.557Z,98680.09
2023-05-13T19:14:24.899Z,98680.09
2023-05-13T19:19:27.320Z,98679.31
2023-05-13T19:24:29.808Z,98682.78
2023-05-13T19:29:31.740Z,98683.88
2023-05-13T19:34:33.593Z,98680.69
2023-05-13T19:39:35.776Z,98682.22
2023-05-13T19:44:37.926Z,98678.63
2023-05-13T19:49:40.421Z,98682.50
2023-05-13T19:54:42.602Z,98682.78
2023-05-13T19:59:44.563Z,98681.19
2023-05-13T20:04:46.557Z,98683.13
2023-05-13T20:09:48.960Z,98677.19
2023-05-13T20:14:58.943Z,98681.88
2023-05-13T20:20:01.427Z,98677.97
2023-05-13T20:25:03.467Z,98675.59
2023-05-13T20:30:06.077Z,98681.81
2023-05-13T20:35:08.832Z,98680.25
2023-05-13T20:40:11.464Z,98683.34
2023-05-13T20:45:13.404Z,98682.53
2023-05-13T20:50:15.313Z,98681.28
2023-05-13T20:55:17.924Z,98683.22
2023-05-13T21:00:20.079Z,98678.47
2023-05-13T21:05:22.404Z,98672.28
2023-05-13T21:10:24.775Z,98669.97
2023-05-13T21:15:27.578Z,98669.13
2023-05-13T21:20:29.449Z,98671.41
2023-05-13T21:25:31.297Z,98677.31
2023-05-13T21:30:33.693Z,98679.31
2023-05-13T21:35:35.574Z,98673.09
2023-05-13T21:40:38.506Z,98687.19
2023-05-13T21:45:40.810Z,98666.84
2023-05-13T21:50:42.703Z,98672.31
2023-05-13T21:55:44.719Z,98666.44
2023-05-13T22:00:46.714Z,98680.06
2023-05-13T22:05:48.494Z,98677.75
2023-05-13T22:10:50.352Z,98667.19
2023-05-13T22:15:52.334Z,98667.16
2023-05-13T22:20:54.160Z,98667.50
2023-05-13T22:25:56.153Z,98672.56
2023-05-13T22:30:58.104Z,98674.13
2023-05-13T22:35:59.928Z,98674.06
2023-05-13T22:41:01.756Z,98659.16
2023-05-13T22:46:03.712Z,98657.19
2023-05-13T22:51:05.586Z,98653.97
2023-05-13T22:56:07.993Z,98661.72
2023-05-13T23:01:09.845Z,98655.00
2023-05-13T23:06:11.824Z,98646.00
2023-05-13T23:11:13.672Z,98653.00
2023-05-13T23:16:15.759Z,98644.16
2023-05-13T23:21:17.698Z,98645.63
2023-05-13T23:26:19.853Z,98640.13
2023-05-13T23:31:21.783Z,98634.72
2023-05-13T23:36:23.628Z,98625.81
2023-05-13T23:41:25.650Z,98621.50
2023-05-13T23:46:27.492Z,98620.72
2023-05-13T23:51:29.473Z,98603.66
2023-05-13T23:56:31.321Z,98605.22
